This is the latest recevied weather packets stored in our database for station/object WC4PEM-14. If no packets are shown the sender has not sent any weather packets the latest 1 day(s).
| Time | Temp. | Humidity | Pressure | Rain* | Wind** | Luminosity | Snow |
|---|---|---|---|---|---|---|---|
| 1778010185 | 32.22° C | 43% | 1014.2 hPa | 0 mm | 1.79 m/s, 119° | - | - |
| 1778009885 | 31.11° C | 46% | 1014.2 hPa | 0 mm | 0.89 m/s, 153° | - | - |
| 1778009649 | 30.56° C | 45% | 1014.4 hPa | 0 mm | 1.34 m/s, 97° | - | - |
| 1778009585 | 30.56° C | 45% | 1014.4 hPa | 0 mm | 1.34 m/s, 97° | - | - |
| 1778009285 | 30.56° C | 45% | 1014.4 hPa | 0 mm | 2.68 m/s, 93° | - | - |
| 1778009072 | 31.11° C | 44% | 1014.4 hPa | 0 mm | 3.13 m/s, 95° | - | - |
| 1778008985 | 31.11° C | 44% | 1014.4 hPa | 0 mm | 3.13 m/s, 95° | - | - |
| 1778008762 | 31.67° C | 45% | 1014.4 hPa | 0 mm | 1.79 m/s, 99° | - | - |
| 1778008685 | 31.67° C | 45% | 1014.4 hPa | 0 mm | 1.79 m/s, 99° | - | - |
| 1778008484 | 32.22° C | 42% | 1014.7 hPa | 0 mm | 1.34 m/s, 97° | - | - |
| 1778008385 | 32.22° C | 42% | 1014.7 hPa | 0 mm | 1.34 m/s, 97° | - | - |
| 1778008119 | 32.78° C | 41% | 1014.5 hPa | 0 mm | 1.79 m/s, 309° | - | - |
| 1778008085 | 32.78° C | 41% | 1014.5 hPa | 0 mm | 1.79 m/s, 309° | - | - |
| 1778007844 | 32.78° C | 41% | 1014.6 hPa | 0 mm | 1.79 m/s, 302° | - | - |
| 1778007785 | 32.78° C | 41% | 1014.6 hPa | 0 mm | 1.79 m/s, 302° | - | - |
| 1778007554 | 32.78° C | 41% | 1014.7 hPa | 0 mm | 1.34 m/s, 111° | - | - |
| 1778007485 | 32.78° C | 41% | 1014.7 hPa | 0 mm | 1.34 m/s, 111° | - | - |
| 1778007185 | 32.78° C | 41% | 1014.8 hPa | 0 mm | 0.89 m/s, 157° | - | - |
| 1778006974 | 32.22° C | 42% | 1014.8 hPa | 0 mm | 1.34 m/s, 9° | - | - |
| 1778006885 | 32.22° C | 42% | 1014.8 hPa | 0 mm | 1.34 m/s, 9° | - | - |
| 1778006733 | 31.67° C | 43% | 1014.8 hPa | 0 mm | 1.34 m/s, 9° | - | - |
| 1778006585 | 31.67° C | 43% | 1014.8 hPa | 0 mm | 1.34 m/s, 9° | - | - |
| 1778006402 | 31.11° C | 45% | 1014.8 hPa | 0 mm | 1.34 m/s, 13° | - | - |
| 1778006285 | 31.11° C | 45% | 1014.8 hPa | 0 mm | 1.34 m/s, 13° | - | - |
| 1778006091 | 30.56° C | 47% | 1014.9 hPa | 0 mm | 1.79 m/s, 102° | - | - |
* Rain latest hour (hover to see other rain measurements)
** Current wind speed in m/s (hover to see current wind gust speed)